createdAt,value
2023-07-06T00:00:28.260Z,105.33
2023-07-06T00:01:27.325Z,104.85
2023-07-06T00:02:27.340Z,104.89
2023-07-06T00:03:28.352Z,104.44
2023-07-06T00:04:28.463Z,104.95
2023-07-06T00:05:28.424Z,105.64
2023-07-06T00:06:28.551Z,104.86
2023-07-06T00:07:28.513Z,104.49
2023-07-06T00:08:28.538Z,104.69
2023-07-06T00:09:28.577Z,104.50
2023-07-06T00:10:27.608Z,104.43
2023-07-06T00:11:27.589Z,104.32
2023-07-06T00:12:27.633Z,104.19
2023-07-06T00:13:27.657Z,104.22
2023-07-06T00:14:28.681Z,104.83
2023-07-06T00:15:28.713Z,104.22
2023-07-06T00:16:28.904Z,104.40
2023-07-06T00:17:27.827Z,104.92
2023-07-06T00:18:28.803Z,104.81
2023-07-06T00:19:27.845Z,104.34
2023-07-06T00:20:28.871Z,104.43
2023-07-06T00:21:27.919Z,105.45
2023-07-06T00:22:28.953Z,104.74
2023-07-06T00:23:28.026Z,105.23
2023-07-06T00:24:29.025Z,104.75
2023-07-06T00:25:29.038Z,105.07
2023-07-06T00:26:28.085Z,104.63
2023-07-06T00:27:28.103Z,105.03
2023-07-06T00:28:28.122Z,105.28
2023-07-06T00:29:28.157Z,104.77
2023-07-06T00:30:29.165Z,104.64
2023-07-06T00:31:28.228Z,105.28
2023-07-06T00:32:29.600Z,104.47
2023-07-06T00:33:28.257Z,103.67
2023-07-06T00:34:29.312Z,103.94
2023-07-06T00:35:29.340Z,104.38
2023-07-06T00:36:29.405Z,103.89
2023-07-06T00:37:29.449Z,103.46
2023-07-06T00:38:28.504Z,104.33
2023-07-06T00:39:28.563Z,103.44
2023-07-06T00:40:29.565Z,103.28
2023-07-06T00:41:29.613Z,104.03
2023-07-06T00:42:28.630Z,103.56
2023-07-06T00:43:29.710Z,103.15
2023-07-06T00:44:29.725Z,103.82
2023-07-06T00:45:28.830Z,103.67
2023-07-06T00:46:28.889Z,103.24
2023-07-06T00:47:28.906Z,103.54
2023-07-06T00:48:28.938Z,102.99
2023-07-06T00:49:29.895Z,103.67
2023-07-06T00:50:28.962Z,103.73
2023-07-06T00:51:28.982Z,103.18
2023-07-06T00:52:30.004Z,103.88
2023-07-06T00:53:29.001Z,103.84
2023-07-06T00:54:29.010Z,103.70
2023-07-06T00:55:29.105Z,102.95
2023-07-06T00:56:29.083Z,103.34
2023-07-06T00:57:29.091Z,103.69
2023-07-06T00:58:29.145Z,103.54
2023-07-06T00:59:29.157Z,103.05
2023-07-06T01:00:29.204Z,103.89
2023-07-06T01:01:29.264Z,103.75
2023-07-06T01:02:29.325Z,103.37
2023-07-06T01:03:30.371Z,103.28
2023-07-06T01:04:30.335Z,103.80
2023-07-06T01:05:29.357Z,103.89
2023-07-06T01:06:30.383Z,104.33
2023-07-06T01:07:29.388Z,103.32
2023-07-06T01:08:29.405Z,103.01
2023-07-06T01:09:30.423Z,104.46
2023-07-06T01:10:29.454Z,103.45
2023-07-06T01:11:30.499Z,103.48
2023-07-06T01:12:29.495Z,102.57
2023-07-06T01:13:30.621Z,103.75
2023-07-06T01:14:29.578Z,102.12
2023-07-06T01:15:30.622Z,101.96
2023-07-06T01:16:30.693Z,101.94
2023-07-06T01:17:30.713Z,102.07
2023-07-06T01:18:30.678Z,102.24
2023-07-06T01:19:30.720Z,102.42
2023-07-06T01:20:30.732Z,102.08
2023-07-06T01:21:30.819Z,103.29
2023-07-06T01:22:30.749Z,102.88
2023-07-06T01:23:30.794Z,103.33
2023-07-06T01:24:29.776Z,102.62
2023-07-06T01:25:30.794Z,102.75
2023-07-06T01:26:30.814Z,103.55
2023-07-06T01:27:29.830Z,103.30
2023-07-06T01:28:30.845Z,102.45
2023-07-06T01:29:29.888Z,102.20
2023-07-06T01:30:30.847Z,101.61
2023-07-06T01:31:29.930Z,102.03
2023-07-06T01:32:30.902Z,102.08
2023-07-06T01:33:29.898Z,102.53
2023-07-06T01:34:30.898Z,102.82
2023-07-06T01:35:29.917Z,102.90
2023-07-06T01:36:30.948Z,101.52
2023-07-06T01:37:30.955Z,101.84
2023-07-06T01:38:31.260Z,101.30
2023-07-06T01:39:30.133Z,102.35
2023-07-06T01:40:31.414Z,102.61
2023-07-06T01:41:30.290Z,101.97
2023-07-06T01:42:31.337Z,101.69
2023-07-06T01:43:30.999Z,101.90
2023-07-06T01:44:30.947Z,100.99
2023-07-06T01:45:30.954Z,102.36
2023-07-06T01:46:30.946Z,101.51
2023-07-06T01:47:31.015Z,102.28
2023-07-06T01:48:29.940Z,101.91
2023-07-06T01:49:30.942Z,101.46
2023-07-06T01:50:30.942Z,101.91
2023-07-06T01:51:29.928Z,102.51
2023-07-06T01:52:29.938Z,101.99
2023-07-06T01:53:30.956Z,100.92
2023-07-06T01:54:30.925Z,102.07
2023-07-06T01:55:30.924Z,101.79
2023-07-06T01:56:29.926Z,102.29
2023-07-06T01:57:29.934Z,101.38
2023-07-06T01:58:29.934Z,101.22
2023-07-06T01:59:30.927Z,102.73
2023-07-06T02:00:29.913Z,102.88
2023-07-06T02:01:29.913Z,102.64
2023-07-06T02:02:30.948Z,102.18
2023-07-06T02:03:30.914Z,102.64
2023-07-06T02:04:30.904Z,101.58
2023-07-06T02:05:29.916Z,101.43
2023-07-06T02:06:32.105Z,102.37
2023-07-06T02:07:30.876Z,101.15
2023-07-06T02:08:30.891Z,102.46
2023-07-06T02:09:29.892Z,101.36
2023-07-06T02:10:30.879Z,101.31
2023-07-06T02:12:52.932Z,102.16
2023-07-06T02:14:48.736Z,25.00
2023-07-06T02:15:48.710Z,25.00
2023-07-06T02:16:49.731Z,25.00
2023-07-06T02:17:49.752Z,25.00
2023-07-06T02:18:49.701Z,25.00
2023-07-06T02:19:49.689Z,29.18
2023-07-06T02:20:49.687Z,26.83
2023-07-06T02:21:49.677Z,27.85
2023-07-06T02:22:49.665Z,27.19
2023-07-06T02:23:49.649Z,29.98
2023-07-06T02:24:48.657Z,27.25
2023-07-06T02:25:48.630Z,27.28
2023-07-06T02:26:49.635Z,27.44
2023-07-06T02:27:48.630Z,28.78
2023-07-06T02:28:49.627Z,31.19
2023-07-06T02:29:48.606Z,27.28
2023-07-06T02:30:48.677Z,27.66
2023-07-06T02:31:48.603Z,27.47
2023-07-06T02:32:49.685Z,28.40
2023-07-06T02:33:49.600Z,29.64
2023-07-06T02:34:48.583Z,26.47
2023-07-06T02:35:48.589Z,25.02
2023-07-06T02:36:48.564Z,25.53
2023-07-06T02:37:48.559Z,30.15
2023-07-06T02:38:49.562Z,28.38
2023-07-06T02:39:48.542Z,33.37
2023-07-06T02:40:48.538Z,28.16
2023-07-06T02:41:49.544Z,31.04
2023-07-06T02:42:49.615Z,30.14
2023-07-06T02:43:49.520Z,27.18
2023-07-06T02:44:48.510Z,29.23
2023-07-06T02:45:48.521Z,28.58
2023-07-06T02:46:49.644Z,25.95
2023-07-06T02:47:48.506Z,29.87
2023-07-06T02:48:49.500Z,26.32
2023-07-06T02:49:49.484Z,27.80
2023-07-06T02:50:48.467Z,29.55
2023-07-06T02:51:48.472Z,27.72
2023-07-06T02:52:49.456Z,31.88
2023-07-06T02:53:49.459Z,31.06
2023-07-06T02:54:49.455Z,29.06
2023-07-06T02:55:48.455Z,30.39
2023-07-06T02:56:48.421Z,28.88
2023-07-06T02:57:49.421Z,28.35
2023-07-06T02:58:49.412Z,31.09
2023-07-06T02:59:49.416Z,30.63
2023-07-06T03:00:49.404Z,27.97
2023-07-06T03:01:48.424Z,33.65
2023-07-06T03:02:48.484Z,31.55
2023-07-06T03:03:48.375Z,31.83
2023-07-06T03:04:49.386Z,29.81
2023-07-06T03:05:49.405Z,29.92
2023-07-06T03:06:49.364Z,30.94
2023-07-06T03:07:48.416Z,31.47
2023-07-06T03:08:49.343Z,30.76
2023-07-06T03:09:48.333Z,28.52
2023-07-06T03:10:48.327Z,30.23
2023-07-06T03:11:49.664Z,29.68
2023-07-06T03:12:48.331Z,30.79
2023-07-06T03:13:48.383Z,27.81
2023-07-06T03:14:49.297Z,28.97
2023-07-06T03:15:48.299Z,33.52
2023-07-06T03:16:49.308Z,31.04
2023-07-06T03:17:48.334Z,32.44
2023-07-06T03:18:49.330Z,28.69
2023-07-06T03:19:49.288Z,26.64
2023-07-06T03:20:49.271Z,29.59
2023-07-06T03:21:49.265Z,29.55
2023-07-06T03:22:49.246Z,28.81
2023-07-06T03:23:48.261Z,29.42
2023-07-06T03:24:49.275Z,25.10
2023-07-06T03:25:49.244Z,28.24
2023-07-06T03:26:48.300Z,25.00
2023-07-06T03:27:49.214Z,28.64
2023-07-06T03:28:53.972Z,29.24
2023-07-06T03:29:49.213Z,29.60
2023-07-06T03:30:49.193Z,29.89
2023-07-06T03:31:49.227Z,30.85
2023-07-06T03:32:49.203Z,29.84
2023-07-06T03:33:48.178Z,32.46
2023-07-06T03:34:48.196Z,31.02
2023-07-06T03:35:48.168Z,28.49
2023-07-06T03:36:48.160Z,28.12
2023-07-06T03:37:48.166Z,28.23
2023-07-06T03:38:49.155Z,26.74
2023-07-06T03:39:49.146Z,28.03
2023-07-06T03:40:48.135Z,28.19
2023-07-06T03:41:49.127Z,26.97
2023-07-06T03:42:48.119Z,28.57
2023-07-06T03:43:49.125Z,27.52
2023-07-06T03:44:48.105Z,27.56
2023-07-06T03:45:49.146Z,26.26
2023-07-06T03:46:49.090Z,28.28
2023-07-06T03:47:48.137Z,27.87
2023-07-06T03:48:48.072Z,28.59
2023-07-06T03:49:48.056Z,26.97
2023-07-06T03:50:49.113Z,27.90
2023-07-06T03:51:49.080Z,25.00
2023-07-06T03:52:48.042Z,26.56
2023-07-06T03:53:49.053Z,30.72
2023-07-06T03:54:48.047Z,28.19
2023-07-06T03:55:49.044Z,30.10
2023-07-06T03:56:48.035Z,27.87
2023-07-06T03:58:02.704Z,31.36
2023-07-06T03:58:49.007Z,31.48
2023-07-06T03:59:48.995Z,31.59
2023-07-06T04:00:48.004Z,30.90
2023-07-06T04:01:50.010Z,28.05
2023-07-06T04:02:49.016Z,31.45
2023-07-06T04:03:49.031Z,31.61
2023-07-06T04:04:48.961Z,28.76
2023-07-06T04:05:47.954Z,28.92
2023-07-06T04:06:48.969Z,27.47
2023-07-06T04:07:47.941Z,28.09
2023-07-06T04:08:47.943Z,27.69
2023-07-06T04:09:48.930Z,27.12
2023-07-06T04:10:48.938Z,25.08
2023-07-06T04:11:47.921Z,29.83
2023-07-06T04:12:47.900Z,26.64
2023-07-06T04:13:47.945Z,27.57
2023-07-06T04:14:48.893Z,25.81
2023-07-06T04:15:49.014Z,27.10
2023-07-06T04:16:48.877Z,25.11
2023-07-06T04:17:48.932Z,26.39
2023-07-06T04:18:48.897Z,29.15
2023-07-06T04:19:47.875Z,25.16
2023-07-06T04:20:48.863Z,28.16
2023-07-06T04:21:47.862Z,28.05
2023-07-06T04:22:47.873Z,27.39
2023-07-06T04:23:48.855Z,28.75
2023-07-06T04:24:47.825Z,27.08
2023-07-06T04:25:47.837Z,28.54
2023-07-06T04:26:47.820Z,31.30
2023-07-06T04:27:48.827Z,31.65
2023-07-06T04:28:48.897Z,29.70
2023-07-06T04:29:48.787Z,31.59
2023-07-06T04:30:48.788Z,31.88
2023-07-06T04:31:48.786Z,30.85
2023-07-06T04:32:48.910Z,30.89
2023-07-06T04:33:48.783Z,32.33
2023-07-06T04:34:48.766Z,29.59
2023-07-06T04:35:48.746Z,31.44
2023-07-06T04:36:48.749Z,29.83
2023-07-06T04:37:48.744Z,32.25
2023-07-06T04:38:48.771Z,30.39
2023-07-06T04:39:47.745Z,31.75
2023-07-06T04:40:47.743Z,32.34
2023-07-06T04:41:47.713Z,28.92
2023-07-06T04:42:48.704Z,32.12
2023-07-06T04:43:47.695Z,32.68
2023-07-06T04:44:47.701Z,25.97
2023-07-06T04:45:48.714Z,34.04
2023-07-06T04:46:47.727Z,27.15
2023-07-06T04:47:47.726Z,28.68
2023-07-06T04:48:48.669Z,29.32
2023-07-06T04:49:47.672Z,31.04
2023-07-06T04:50:48.655Z,29.30
2023-07-06T04:51:47.654Z,27.29
2023-07-06T04:52:48.633Z,28.89
2023-07-06T04:53:48.634Z,29.32
2023-07-06T04:54:47.651Z,27.68
2023-07-06T04:55:47.647Z,30.03
2023-07-06T04:56:48.604Z,29.01
2023-07-06T04:57:48.619Z,29.80
2023-07-06T04:58:48.599Z,27.91
2023-07-06T04:59:48.592Z,28.28
2023-07-06T05:00:47.680Z,25.00
2023-07-06T05:01:48.583Z,28.10
2023-07-06T05:02:47.747Z,28.18
2023-07-06T05:03:48.602Z,25.37
2023-07-06T05:04:48.566Z,28.05
2023-07-06T05:05:48.570Z,25.49
2023-07-06T05:06:48.551Z,25.89
2023-07-06T05:07:48.541Z,30.58
2023-07-06T05:08:48.528Z,27.36
2023-07-06T05:09:48.540Z,27.58
2023-07-06T05:10:47.772Z,29.80
2023-07-06T05:11:47.513Z,28.86
2023-07-06T05:12:47.512Z,29.49
2023-07-06T05:13:47.577Z,25.00
2023-07-06T05:14:47.493Z,29.49
2023-07-06T05:15:48.503Z,30.94
2023-07-06T05:16:48.512Z,28.14
2023-07-06T05:17:48.518Z,25.00
2023-07-06T05:18:48.470Z,28.93
2023-07-06T05:19:47.497Z,28.24
2023-07-06T05:20:48.470Z,30.99
2023-07-06T05:21:48.438Z,27.43
2023-07-06T05:22:48.468Z,25.35
2023-07-06T05:23:47.474Z,29.13
2023-07-06T05:24:48.432Z,30.19
2023-07-06T05:25:48.426Z,26.23
2023-07-06T05:26:48.422Z,29.97
2023-07-06T05:27:48.383Z,28.12
2023-07-06T05:28:48.389Z,29.58
2023-07-06T05:29:47.397Z,25.28
2023-07-06T05:30:48.413Z,30.28
2023-07-06T05:31:47.377Z,32.60
2023-07-06T05:32:48.405Z,28.09
2023-07-06T05:33:48.404Z,27.47
2023-07-06T05:34:48.410Z,28.44
2023-07-06T05:35:48.093Z,27.51
2023-07-06T05:36:47.404Z,27.66
2023-07-06T05:37:48.432Z,26.63
2023-07-06T05:38:48.437Z,29.47
2023-07-06T05:39:48.436Z,28.90
2023-07-06T05:40:48.447Z,29.00
2023-07-06T05:41:47.429Z,27.24
2023-07-06T05:42:48.472Z,25.00
2023-07-06T05:43:47.465Z,29.53
2023-07-06T05:44:48.434Z,30.80
2023-07-06T05:45:47.457Z,29.35
2023-07-06T05:46:48.616Z,25.60
2023-07-06T05:47:47.477Z,32.36
2023-07-06T05:48:48.427Z,32.26
2023-07-06T05:49:48.443Z,28.15
2023-07-06T05:50:48.436Z,25.61
2023-07-06T05:51:48.428Z,25.00
2023-07-06T05:52:48.429Z,30.37
2023-07-06T05:53:47.427Z,29.34
2023-07-06T05:54:47.416Z,28.75
2023-07-06T05:55:47.413Z,26.11
2023-07-06T05:56:47.421Z,29.22
2023-07-06T05:57:48.434Z,30.69
2023-07-06T05:58:47.428Z,29.20
2023-07-06T05:59:48.418Z,30.36
2023-07-06T06:00:47.414Z,31.24
2023-07-06T06:01:48.426Z,30.43
2023-07-06T06:02:47.492Z,29.96
2023-07-06T06:03:48.490Z,29.11
2023-07-06T06:04:48.473Z,27.16
2023-07-06T06:05:47.473Z,27.07
2023-07-06T06:06:48.500Z,30.61
2023-07-06T06:07:48.536Z,28.75
2023-07-06T06:08:48.595Z,29.90
2023-07-06T06:09:48.633Z,25.51
2023-07-06T06:11:47.752Z,30.78
2023-07-06T06:12:48.824Z,26.03
2023-07-06T06:13:47.899Z,29.53
2023-07-06T06:14:48.992Z,27.47
2023-07-06T06:15:49.029Z,28.00
2023-07-06T06:16:49.106Z,28.49
2023-07-06T06:17:49.266Z,26.67
2023-07-06T06:18:49.202Z,26.56
2023-07-06T06:19:48.394Z,26.60
2023-07-06T06:20:48.320Z,27.97
2023-07-06T06:21:49.386Z,25.97
2023-07-06T06:22:48.448Z,27.04
2023-07-06T06:23:49.516Z,26.22
2023-07-06T06:24:49.579Z,29.20
2023-07-06T06:25:48.647Z,26.42
2023-07-06T06:26:48.685Z,27.12
2023-07-06T06:27:49.766Z,25.00
2023-07-06T06:28:49.807Z,27.78
2023-07-06T06:29:49.901Z,27.67
2023-07-06T06:30:48.969Z,25.96
2023-07-06T06:31:49.126Z,26.65
2023-07-06T06:32:50.182Z,28.36
2023-07-06T06:33:50.110Z,28.34
2023-07-06T06:34:49.195Z,30.96
2023-07-06T06:35:49.233Z,27.26
2023-07-06T06:36:50.288Z,28.69
2023-07-06T06:37:49.360Z,26.40
2023-07-06T06:38:50.418Z,25.74
2023-07-06T06:39:51.784Z,27.02
2023-07-06T06:40:49.542Z,27.71
2023-07-06T06:41:50.608Z,27.64
2023-07-06T06:42:49.719Z,27.20
2023-07-06T06:43:49.697Z,27.40
2023-07-06T06:44:49.773Z,27.41
2023-07-06T06:45:49.863Z,27.86
2023-07-06T06:46:50.948Z,29.06
2023-07-06T06:47:49.966Z,26.66
2023-07-06T06:48:50.980Z,27.90
2023-07-06T06:49:50.053Z,28.25
2023-07-06T06:50:50.132Z,29.08
2023-07-06T06:51:50.191Z,30.68
2023-07-06T06:52:50.245Z,26.53
2023-07-06T06:53:51.312Z,26.83
2023-07-06T06:54:51.373Z,30.62
2023-07-06T06:55:51.433Z,26.24
2023-07-06T06:56:51.461Z,26.21
2023-07-06T06:57:51.527Z,29.91
2023-07-06T06:58:51.583Z,27.43
2023-07-06T06:59:51.638Z,27.71
2023-07-06T07:00:50.703Z,29.18
2023-07-06T07:01:50.764Z,27.79
2023-07-06T07:02:50.863Z,28.52
2023-07-06T07:03:50.874Z,25.58
2023-07-06T07:04:50.902Z,27.36
2023-07-06T07:05:50.955Z,29.56
2023-07-06T07:06:50.990Z,29.93
2023-07-06T07:07:51.062Z,27.99
2023-07-06T07:08:52.095Z,27.48
2023-07-06T07:09:51.119Z,29.49
2023-07-06T07:10:52.186Z,25.96
2023-07-06T07:11:51.205Z,28.84
2023-07-06T07:12:52.266Z,29.45
2023-07-06T07:13:51.366Z,29.80
2023-07-06T07:14:52.354Z,28.47
2023-07-06T07:15:52.486Z,27.53
2023-07-06T07:16:52.488Z,30.08
2023-07-06T07:17:51.610Z,30.78
2023-07-06T07:18:52.588Z,28.37
2023-07-06T07:19:51.600Z,27.74
2023-07-06T07:20:51.653Z,28.72
2023-07-06T07:21:51.764Z,28.26
2023-07-06T07:22:51.756Z,27.54
2023-07-06T07:23:52.809Z,26.97
2023-07-06T07:24:51.939Z,27.95
2023-07-06T07:25:52.895Z,27.09
2023-07-06T07:26:51.945Z,29.94
2023-07-06T07:27:51.982Z,28.68
2023-07-06T07:28:52.036Z,30.05
2023-07-06T07:29:53.100Z,28.94
2023-07-06T07:30:53.134Z,31.08
2023-07-06T07:31:52.314Z,30.38
2023-07-06T07:32:53.285Z,30.71
2023-07-06T07:33:53.292Z,34.72
2023-07-06T07:34:53.351Z,34.84
2023-07-06T07:35:53.460Z,33.23
2023-07-06T07:36:52.427Z,36.61
2023-07-06T07:37:53.550Z,34.88
2023-07-06T07:38:53.503Z,36.29
2023-07-06T07:39:52.562Z,35.45
2023-07-06T07:40:52.592Z,36.45
2023-07-06T07:41:52.641Z,34.58
2023-07-06T07:42:52.680Z,35.00
2023-07-06T07:43:53.710Z,37.21
2023-07-06T07:44:52.765Z,37.60
2023-07-06T07:45:52.839Z,36.14
2023-07-06T07:46:53.823Z,35.07
2023-07-06T07:47:53.906Z,35.70
2023-07-06T07:48:53.912Z,36.20
2023-07-06T07:49:52.926Z,34.41
2023-07-06T07:50:52.992Z,32.79
2023-07-06T07:51:53.006Z,32.75
2023-07-06T07:52:54.503Z,32.94
2023-07-06T07:53:54.140Z,30.73
2023-07-06T07:54:54.063Z,31.91
2023-07-06T07:55:54.153Z,32.11
2023-07-06T07:56:54.105Z,34.13
2023-07-06T07:57:53.116Z,34.44
2023-07-06T07:58:53.154Z,32.79
2023-07-06T07:59:53.172Z,29.53
2023-07-06T08:00:54.232Z,29.69
2023-07-06T08:01:54.173Z,30.47
2023-07-06T08:02:54.227Z,33.46
2023-07-06T08:03:53.242Z,33.53
2023-07-06T08:04:53.197Z,31.08
2023-07-06T08:05:53.361Z,32.81
2023-07-06T08:06:53.239Z,30.28
2023-07-06T08:07:54.237Z,26.38
2023-07-06T08:08:53.263Z,26.96
2023-07-06T08:09:54.254Z,27.19
2023-07-06T08:10:54.274Z,29.12
2023-07-06T08:11:53.285Z,27.58
2023-07-06T08:12:54.275Z,28.90
2023-07-06T08:13:54.404Z,25.30
2023-07-06T08:14:53.289Z,30.58
2023-07-06T08:15:54.532Z,25.73
2023-07-06T08:16:54.316Z,26.87
2023-07-06T08:17:54.368Z,31.01
2023-07-06T08:18:58.572Z,33.29
2023-07-06T08:20:13.129Z,33.31
2023-07-06T08:21:37.172Z,33.55
2023-07-06T08:22:09.013Z,33.66
2023-07-06T08:22:54.302Z,33.85
2023-07-06T08:23:54.263Z,34.64
2023-07-06T08:24:53.270Z,35.51
2023-07-06T08:25:54.513Z,34.36
2023-07-06T08:26:53.258Z,37.87
2023-07-06T08:27:54.236Z,31.65
2023-07-06T08:28:55.805Z,28.91
2023-07-06T08:29:53.280Z,29.24
2023-07-06T08:30:54.341Z,29.87
2023-07-06T08:31:54.237Z,30.52
2023-07-06T08:32:54.243Z,32.51
2023-07-06T08:33:54.194Z,33.14
2023-07-06T08:34:53.221Z,35.68
2023-07-06T08:35:53.186Z,33.67
2023-07-06T08:36:54.172Z,39.47
2023-07-06T08:37:53.160Z,39.82
2023-07-06T08:38:53.183Z,42.11
2023-07-06T08:39:53.158Z,42.13
2023-07-06T08:40:54.436Z,45.27
2023-07-06T08:41:53.167Z,43.10
2023-07-06T08:42:53.134Z,46.78
2023-07-06T08:43:54.118Z,47.58
2023-07-06T08:44:54.122Z,47.70
2023-07-06T08:45:53.115Z,46.95
2023-07-06T08:46:53.172Z,49.67
2023-07-06T08:47:54.141Z,50.26
2023-07-06T08:48:53.095Z,48.30
2023-07-06T08:49:53.093Z,49.16
2023-07-06T08:50:54.065Z,48.92
2023-07-06T08:51:54.063Z,48.76
2023-07-06T08:52:54.096Z,50.33
2023-07-06T08:53:53.151Z,49.71
2023-07-06T08:54:54.342Z,45.21
2023-07-06T08:55:54.341Z,41.50
2023-07-06T08:56:53.280Z,45.06
2023-07-06T08:57:54.328Z,40.87
2023-07-06T08:58:53.395Z,40.16
2023-07-06T08:59:53.496Z,40.70
2023-07-06T09:00:54.492Z,41.67
2023-07-06T09:01:54.528Z,44.72
2023-07-06T09:02:53.623Z,40.44
2023-07-06T09:03:53.695Z,40.82
2023-07-06T09:04:54.682Z,37.58
2023-07-06T09:05:54.920Z,41.40
2023-07-06T09:06:53.778Z,39.22
2023-07-06T09:07:53.808Z,38.72
2023-07-06T09:08:54.883Z,42.41
2023-07-06T09:09:53.914Z,41.82
2023-07-06T09:10:58.684Z,40.87
2023-07-06T09:11:54.958Z,41.08
2023-07-06T09:12:55.556Z,41.59
2023-07-06T09:13:55.001Z,42.43
2023-07-06T09:14:55.032Z,41.39
2023-07-06T09:15:54.193Z,38.72
2023-07-06T09:16:53.950Z,43.47
2023-07-06T09:17:53.993Z,42.58
2023-07-06T09:18:53.955Z,39.58
2023-07-06T09:19:53.890Z,36.61
2023-07-06T09:20:53.883Z,38.49
2023-07-06T09:21:56.921Z,37.34
2023-07-06T09:22:53.877Z,37.49
2023-07-06T09:23:54.878Z,37.68
2023-07-06T09:24:54.869Z,37.42
2023-07-06T09:25:55.041Z,40.44
2023-07-06T09:26:53.896Z,38.94
2023-07-06T09:27:56.413Z,37.53
2023-07-06T09:28:54.841Z,37.70
2023-07-06T09:29:53.827Z,38.61
2023-07-06T09:30:53.877Z,39.50
2023-07-06T09:31:53.829Z,39.31
2023-07-06T09:32:53.848Z,41.46
2023-07-06T09:33:54.805Z,39.40
2023-07-06T09:34:53.792Z,38.79
2023-07-06T09:35:55.279Z,41.25
2023-07-06T09:36:54.792Z,43.08
2023-07-06T09:37:54.781Z,37.56
2023-07-06T09:38:53.785Z,44.34
2023-07-06T09:39:54.776Z,43.22
2023-07-06T09:40:54.758Z,42.14
2023-07-06T09:41:53.765Z,42.45
2023-07-06T09:42:54.761Z,41.57
2023-07-06T09:43:54.888Z,40.40
2023-07-06T09:44:53.823Z,38.97
2023-07-06T09:45:57.349Z,41.30
2023-07-06T09:46:54.910Z,41.46
2023-07-06T09:47:54.922Z,40.80
2023-07-06T09:48:54.846Z,40.35
2023-07-06T09:49:53.822Z,38.39
2023-07-06T09:50:54.839Z,42.15
2023-07-06T09:51:54.817Z,39.54
2023-07-06T09:52:54.838Z,43.09
2023-07-06T09:53:54.890Z,42.91
2023-07-06T09:54:54.930Z,43.36
2023-07-06T09:55:55.255Z,41.08
2023-07-06T09:56:54.014Z,46.12
2023-07-06T09:57:56.970Z,42.43
2023-07-06T09:58:54.079Z,42.50
2023-07-06T09:59:54.031Z,41.55
2023-07-06T10:00:54.039Z,40.26
2023-07-06T10:01:55.128Z,42.77
2023-07-06T10:02:54.084Z,38.64
2023-07-06T10:03:56.638Z,38.86
2023-07-06T10:04:55.071Z,38.94
2023-07-06T10:05:54.086Z,37.66
2023-07-06T10:06:55.008Z,32.94
2023-07-06T10:07:53.995Z,35.64
2023-07-06T10:08:53.991Z,34.87
2023-07-06T10:09:54.986Z,34.52
2023-07-06T10:10:54.052Z,32.98
2023-07-06T10:11:53.998Z,33.34
2023-07-06T10:12:54.956Z,35.99
2023-07-06T10:13:55.013Z,33.67
2023-07-06T10:14:53.952Z,36.98
2023-07-06T10:15:54.007Z,38.18
2023-07-06T10:16:53.974Z,36.27
2023-07-06T10:17:53.987Z,36.54
2023-07-06T10:18:53.920Z,35.80
2023-07-06T10:19:53.917Z,33.92
2023-07-06T10:20:53.902Z,31.12
2023-07-06T10:21:54.894Z,27.23
2023-07-06T10:22:54.894Z,28.56
2023-07-06T10:23:54.882Z,31.38
2023-07-06T10:24:53.873Z,27.72
2023-07-06T10:25:53.870Z,28.22
2023-07-06T10:26:54.865Z,32.13
2023-07-06T10:27:53.848Z,32.76
2023-07-06T10:28:53.890Z,27.87
2023-07-06T10:29:54.862Z,27.12
2023-07-06T10:30:53.935Z,30.57
2023-07-06T10:31:54.912Z,25.00
2023-07-06T10:32:53.946Z,28.17
2023-07-06T10:33:53.920Z,26.52
2023-07-06T10:34:54.971Z,26.12
2023-07-06T10:35:54.033Z,32.81
2023-07-06T10:36:53.961Z,30.79
2023-07-06T10:37:53.946Z,32.65
2023-07-06T10:38:54.973Z,31.51
2023-07-06T10:39:54.984Z,34.48
2023-07-06T10:40:53.973Z,28.90
2023-07-06T10:41:54.977Z,32.10
2023-07-06T10:42:53.984Z,27.87
2023-07-06T10:43:53.986Z,29.70
2023-07-06T10:44:54.966Z,29.45
2023-07-06T10:45:55.121Z,26.20
2023-07-06T10:46:55.002Z,25.75
2023-07-06T10:47:54.006Z,26.30
2023-07-06T10:48:53.972Z,25.08
2023-07-06T10:49:53.997Z,27.72
2023-07-06T10:50:54.981Z,28.87
2023-07-06T10:51:54.969Z,30.48
2023-07-06T10:52:53.961Z,32.38
2023-07-06T10:53:53.956Z,28.15
2023-07-06T10:54:53.972Z,29.64
2023-07-06T10:55:55.205Z,31.50
2023-07-06T10:56:54.966Z,27.68
2023-07-06T10:57:55.000Z,29.65
2023-07-06T10:58:55.024Z,29.86
2023-07-06T10:59:55.047Z,30.83
2023-07-06T11:00:55.091Z,31.84
2023-07-06T11:01:54.147Z,30.50
2023-07-06T11:02:55.166Z,29.90
2023-07-06T11:03:55.207Z,29.02
2023-07-06T11:04:55.197Z,31.72
2023-07-06T11:05:55.513Z,35.27
2023-07-06T11:06:54.353Z,31.01
2023-07-06T11:07:54.391Z,34.64
2023-07-06T11:08:54.424Z,35.04
2023-07-06T11:09:54.496Z,32.68
2023-07-06T11:10:55.556Z,32.64
2023-07-06T11:11:54.639Z,34.88
2023-07-06T11:12:54.679Z,35.63
2023-07-06T11:13:55.891Z,36.58
2023-07-06T11:14:54.775Z,40.08
2023-07-06T11:15:56.133Z,38.73
2023-07-06T11:16:54.904Z,37.01
2023-07-06T11:17:54.958Z,36.69
2023-07-06T11:18:55.019Z,38.64
2023-07-06T11:19:56.039Z,36.68
2023-07-06T11:20:55.103Z,34.70
2023-07-06T11:21:55.167Z,36.68
2023-07-06T11:22:56.213Z,33.49
2023-07-06T11:23:56.250Z,36.83
2023-07-06T11:24:55.308Z,35.95
2023-07-06T11:25:55.640Z,32.71
2023-07-06T11:26:56.397Z,33.12
2023-07-06T11:27:55.429Z,33.18
2023-07-06T11:28:56.478Z,34.71
2023-07-06T11:29:55.551Z,33.45
2023-07-06T11:30:56.854Z,30.96
2023-07-06T11:31:55.638Z,32.31
2023-07-06T11:32:56.684Z,32.15
2023-07-06T11:33:56.695Z,31.00
2023-07-06T11:34:55.757Z,29.10
2023-07-06T11:35:55.790Z,31.12
2023-07-06T11:36:56.824Z,31.25
2023-07-06T11:37:59.520Z,30.91
2023-07-06T11:38:56.839Z,30.98
2023-07-06T11:39:57.869Z,29.25
2023-07-06T11:40:57.218Z,30.30
2023-07-06T11:41:56.812Z,28.83
2023-07-06T11:42:55.803Z,30.13
2023-07-06T11:43:55.788Z,29.63
2023-07-06T11:44:56.800Z,30.46
2023-07-06T11:45:56.822Z,21.46
2023-07-06T11:46:56.893Z,30.46
2023-07-06T11:47:56.906Z,28.30
2023-07-06T11:48:56.907Z,24.21
2023-07-06T11:49:56.954Z,28.03
2023-07-06T11:50:57.344Z,24.97
2023-07-06T11:51:57.046Z,44.28
2023-07-06T11:52:56.063Z,37.02
2023-07-06T11:53:56.116Z,30.29
2023-07-06T11:54:56.184Z,32.89
2023-07-06T11:55:57.394Z,28.32
2023-07-06T11:56:57.263Z,28.83
2023-07-06T11:57:56.292Z,28.98
2023-07-06T11:58:57.343Z,32.18
2023-07-06T11:59:57.393Z,29.05
2023-07-06T12:00:57.739Z,30.66
2023-07-06T12:01:57.513Z,27.97
2023-07-06T12:02:57.594Z,25.49
2023-07-06T12:03:56.706Z,29.15
2023-07-06T12:04:57.726Z,30.25
2023-07-06T12:05:58.070Z,29.12
2023-07-06T12:06:57.723Z,30.13
2023-07-06T12:07:57.768Z,27.57
2023-07-06T12:08:56.784Z,26.49
2023-07-06T12:09:59.860Z,29.97
2023-07-06T12:10:57.993Z,34.58
2023-07-06T12:11:57.807Z,34.14
2023-07-06T12:12:56.798Z,29.79
2023-07-06T12:13:57.829Z,31.68
2023-07-06T12:14:57.799Z,30.31
2023-07-06T12:15:57.455Z,30.02
2023-07-06T12:16:57.796Z,27.59
2023-07-06T12:17:56.812Z,28.61
2023-07-06T12:18:57.761Z,25.00
2023-07-06T12:19:57.758Z,26.19
2023-07-06T12:20:56.911Z,31.38
2023-07-06T12:21:56.737Z,31.38
2023-07-06T12:22:57.787Z,28.72
2023-07-06T12:23:57.726Z,31.24
2023-07-06T12:24:56.822Z,32.55
2023-07-06T12:25:56.988Z,33.98
2023-07-06T12:26:56.715Z,33.74
2023-07-06T12:27:56.697Z,32.34
2023-07-06T12:28:56.679Z,30.78
2023-07-06T12:29:57.682Z,28.55
2023-07-06T12:30:57.711Z,30.31
2023-07-06T12:31:57.667Z,28.89
2023-07-06T12:32:57.687Z,25.11
2023-07-06T12:33:57.644Z,25.00
2023-07-06T12:34:56.661Z,27.62
2023-07-06T12:35:57.817Z,32.19
2023-07-06T12:36:56.634Z,33.15
2023-07-06T12:37:56.638Z,29.07
2023-07-06T12:38:57.681Z,28.75
2023-07-06T12:39:57.604Z,26.97
2023-07-06T12:40:56.686Z,25.98
2023-07-06T12:41:57.603Z,27.29
2023-07-06T12:42:57.587Z,29.82
2023-07-06T12:43:57.584Z,29.46
2023-07-06T12:44:56.576Z,28.38
2023-07-06T12:45:57.839Z,34.85
2023-07-06T12:46:57.631Z,29.75
2023-07-06T12:47:57.603Z,32.34
2023-07-06T12:48:56.539Z,28.76
2023-07-06T12:49:57.733Z,28.53
2023-07-06T12:50:56.563Z,26.09
2023-07-06T12:51:57.135Z,32.74